Flight Track Log - Related Links

Times and Time Zones

All times are in EDT time to prevent confusion due to time zone crossing. See the ANT208 flight status page for this flight to view local times or setup timezone preferences in your user account.

Time Position Orientation Groundspeed Altitude Reporting Facility
EDT Latitude Longitude Course Direction KTS MPH feet Rate Location/Type
Thu 05:05:00 PM 62.9258 -137.6473 149° Southeast  Level Estimated
Thu 05:06:00 PM 62.8746 -137.5827 150° Southeast  Level FlightAware Approximate
Thu 05:07:00 PM 62.8234 -137.5183 150° Southeast  Level FlightAware Approximate
Thu 05:08:00 PM 62.7723 -137.4541 150° Southeast  Level FlightAware Approximate
Thu 05:09:00 PM 62.7210 -137.3902 150° Southeast  Level FlightAware Approximate
Thu 05:10:00 PM 62.6698 -137.3265 150° Southeast  Level FlightAware Approximate
Thu 05:11:00 PM 62.6185 -137.2630 150° Southeast  Level FlightAware Approximate
Thu 05:12:00 PM 62.5672 -137.1997 150° Southeast  Level FlightAware Approximate
Thu 05:13:00 PM 62.5158 -137.1366 150° Southeast  Level FlightAware Approximate
Thu 05:14:00 PM 62.4645 -137.0738 151° Southeast  Level FlightAware Approximate
Thu 05:15:00 PM 62.4131 -137.0112 151° Southeast  Level FlightAware Approximate
Thu 05:16:00 PM 62.3616 -136.9487 151° Southeast  Level FlightAware Approximate
Thu 05:17:00 PM 62.3102 -136.8866 151° Southeast  Level FlightAware Approximate
Thu 05:18:00 PM 62.2587 -136.8246 151° Southeast  Level FlightAware Approximate
Thu 05:19:00 PM 62.2072 -136.7628 151° Southeast  Level FlightAware Approximate
Thu 05:20:00 PM 62.1557 -136.7012 151° Southeast  Level FlightAware Approximate
Thu 05:21:00 PM 62.1041 -136.6398 151° Southeast  Level FlightAware Approximate
Thu 05:22:00 PM 62.0525 -136.5787 151° Southeast  Level FlightAware Approximate
Thu 05:23:00 PM 62.0009 -136.5178 151° Southeast  Level FlightAware Approximate
Thu 05:24:00 PM 61.9493 -136.4570 151° Southeast  Level FlightAware Approximate
Thu 05:25:00 PM 61.8976 -136.3965 151° Southeast  Level FlightAware Approximate
Thu 05:26:00 PM 61.8459 -136.3362 151° Southeast  Level FlightAware Approximate
Thu 05:27:00 PM 61.7942 -136.2760 151° Southeast  Level FlightAware Approximate
Thu 05:28:00 PM 61.7424 -136.2161 151° Southeast  Level FlightAware Approximate
Thu 05:29:00 PM 61.6907 -136.1564 151° Southeast  Level FlightAware Approximate
Thu 05:30:00 PM 61.6389 -136.0969 151° Southeast  Level FlightAware Approximate
Thu 05:31:00 PM 61.5870 -136.0376 152° Southeast  Level Estimated
Thu 05:32:00 PM 61.5349 -135.9794 152° Southeast  Level FlightAware Approximate
Thu 05:33:00 PM 61.4828 -135.9214 152° Southeast  Level FlightAware Approximate
Thu 05:34:00 PM 61.4307 -135.8636 152° Southeast  Level FlightAware Approximate
Thu 05:35:00 PM 61.3785 -135.8060 152° Southeast  Level FlightAware Approximate
Thu 05:36:00 PM 61.3263 -135.7487 152° Southeast  Level FlightAware Approximate
Thu 05:37:00 PM 61.2744 -135.6902 152° Southeast  Level Estimated
Thu 05:38:00 PM 61.2223 -135.6326 152° Southeast  Level FlightAware Approximate
Thu 05:39:00 PM 61.1702 -135.5753 152° Southeast  Level FlightAware Approximate
Thu 05:40:00 PM 61.1183 -135.5172 150° Southeast  Level Estimated
Thu 05:41:00 PM 61.0670 -135.4567 150° Southeast  Level FlightAware Approximate
Thu 05:42:00 PM 61.0157 -135.3964 150° Southeast  Level FlightAware Approximate
Thu 05:43:00 PM 60.9644 -135.3363 150° Southeast  Level FlightAware Approximate
Thu 05:44:00 PM 60.9120 -135.2806 154° Southeast  Level Estimated
Thu 05:45:00 PM 60.8595 -135.2250 154° Southeast  Level Estimated
Thu 05:46:00 PM 60.8064 -135.1726 154° Southeast  Level FlightAware Approximate
Thu 05:47:00 PM 60.7543 -135.1158 154° Southeast  Level Estimated
Thu 05:48:00 PM 60.7095 -135.0673 North  Level Estimated
Thu 05:49:00 PM 60.7095 -135.0673 North  Level Estimated
Thu 05:50:00 PM 60.7095 -135.0673 North  Level Estimated
Thu 05:51:00 PM 60.7095 -135.0673 North  Level Estimated
Thu 05:52:00 PM 60.7095 -135.0673 North  Level Estimated
Thu 05:53:00 PM 60.7095 -135.0673 North  Level Estimated
Thu 05:54:00 PM 60.7095 -135.0673 North  Level Estimated
Thu 05:55:00 PM 60.7095 -135.0673 North  Level Estimated
Thu 05:56:00 PM 60.7095 -135.0673 North  Level Estimated
Thu 05:57:00 PM 60.7095 -135.0673 North  Level Estimated
Thu 05:58:00 PM 60.7095 -135.0673 North  Level Estimated
Thu 05:59:00 PM 60.7095 -135.0673 North  Level Estimated
Thu 06:00:00 PM 60.7095 -135.0673 North  Level Estimated
Thu 06:01:00 PM 60.7095 -135.0673 North  Level Estimated
Thu 06:02:00 PM 60.7095 -135.0673 North  Level Estimated
Thu 06:03:00 PM 60.7095 -135.0673 North  Level Estimated

Login

Don't have an account? Register now (free) for customized features, flight alerts, and more!